This is the latest recevied weather packets stored in our database for station/object N2XP-3. If no packets are shown the sender has not sent any weather packets the latest 1 day(s).
| Time | Temp. | Humidity | Pressure | Rain* | Wind** | Luminosity | Snow |
|---|---|---|---|---|---|---|---|
| 1836274354 | 15.56° C | 79% | 1018 hPa | 0 mm | 0 m/s | - | - |
| 1836274245 | 16.11° C | 78% | 1017.8 hPa | 0 mm | 0 m/s | - | - |
| 1836274195 | 16.11° C | 78% | 1017.8 hPa | 0 mm | 0 m/s | - | - |
| 1778043898 | 17.22° C | 75% | 1007.7 hPa | 0 mm | 0.45 m/s, 204° | - | - |
| 1778043629 | 17.22° C | 75% | 1007.7 hPa | 0 mm | 0.89 m/s, 253° | - | - |
| 1778043597 | 17.22° C | 75% | 1007.7 hPa | 0 mm | 0.89 m/s, 253° | - | - |
| 1778043366 | 17.22° C | 74% | 1007.7 hPa | 0 mm | 0.89 m/s, 276° | - | - |
| 1778043297 | 17.22° C | 74% | 1007.7 hPa | 0 mm | 0.89 m/s, 276° | - | - |
| 1778043047 | 17.22° C | 74% | 1007.8 hPa | 0 mm | 0 m/s | - | - |
| 1778042988 | 17.22° C | 74% | 1007.8 hPa | 0 mm | 0 m/s | - | - |
| 1778042148 | 17.22° C | 73% | 1007.8 hPa | 0 mm | 0.45 m/s, 256° | - | - |
| 1778042079 | 17.22° C | 73% | 1007.8 hPa | 0 mm | 0.45 m/s, 256° | - | - |
| 1778041780 | 17.78° C | 73% | 1007.8 hPa | 0 mm | 0.89 m/s, 287° | - | - |
| 1778041673 | 17.78° C | 73% | 1007.8 hPa | 0 mm | 0.45 m/s, 219° | - | - |
| 1778041474 | 17.78° C | 73% | 1007.8 hPa | 0 mm | 0.45 m/s, 219° | - | - |
| 1778041169 | 17.78° C | 72% | 1007.8 hPa | 0 mm | 0.89 m/s, 318° | - | - |
| 1778040853 | 17.78° C | 72% | 1007.8 hPa | 0 mm | 0 m/s | - | - |
| 1778040553 | 17.78° C | 71% | 1007.8 hPa | 0 mm | 1.34 m/s, 252° | - | - |
| 1778040250 | 17.78° C | 71% | 1007.8 hPa | 0 mm | 0.89 m/s, 249° | - | - |
| 1778039950 | 18.33° C | 71% | 1007.8 hPa | 0 mm | 1.79 m/s, 281° | - | - |
| 1778039640 | 17.78° C | 71% | 1007.8 hPa | 0 mm | 1.34 m/s, 236° | - | - |
| 1778039335 | 17.78° C | 70% | 1007.8 hPa | 0 mm | 0 m/s | - | - |
| 1778039035 | 17.78° C | 70% | 1007.8 hPa | 0 mm | 1.79 m/s, 280° | - | - |
| 1778038736 | 17.78° C | 70% | 1007.8 hPa | 0 mm | 1.79 m/s, 262° | - | - |
| 1778038424 | 18.33° C | 70% | 1007.8 hPa | 0 mm | 1.79 m/s, 243° | - | - |
* Rain latest hour (hover to see other rain measurements)
** Current wind speed in m/s (hover to see current wind gust speed)